createdAt,value
2018-02-21T00:00:08.008Z,1012.18
2018-02-21T00:00:48.410Z,1012.24
2018-02-21T00:01:28.767Z,1012.2
2018-02-21T00:02:09.170Z,1012.23
2018-02-21T00:02:49.603Z,1012.26
2018-02-21T00:03:29.980Z,1012.24
2018-02-21T00:05:29.460Z,1012.3
2018-02-21T00:06:17.450Z,1012.35
2018-02-21T00:07:08.253Z,1012.32
2018-02-21T00:07:59.426Z,1012.35
2018-02-21T00:08:50.421Z,1012.35
2018-02-21T00:09:37.961Z,1012.36
2018-02-21T00:10:28.894Z,1012.35
2018-02-21T00:11:18.950Z,1012.29
2018-02-21T00:12:07.185Z,1012.38
2018-02-21T00:12:56.393Z,1012.33
2018-02-21T00:14:30.281Z,1012.33
2018-02-21T00:16:49.705Z,1012.3
2018-02-21T00:17:38.680Z,1012.35
2018-02-21T00:18:25.915Z,1012.35
2018-02-21T00:19:16.160Z,1012.37
2018-02-21T00:20:05.170Z,1012.42
2018-02-21T00:20:45.212Z,1012.41
2018-02-21T00:21:25.622Z,1012.45
2018-02-21T00:22:06.055Z,1012.43
2018-02-21T00:22:46.435Z,1012.4
2018-02-21T00:23:26.883Z,1012.41
2018-02-21T00:24:07.418Z,1012.44
2018-02-21T00:24:47.720Z,1012.43
2018-02-21T00:25:28.173Z,1012.47
2018-02-21T00:26:08.575Z,1012.44
2018-02-21T00:26:48.993Z,1012.41
2018-02-21T00:27:29.377Z,1012.44
2018-02-21T00:28:09.813Z,1012.48
2018-02-21T00:28:50.250Z,1012.45
2018-02-21T00:29:30.685Z,1012.48
2018-02-21T00:30:11.062Z,1012.49
2018-02-21T00:30:51.489Z,1012.51
2018-02-21T00:31:31.929Z,1012.52
2018-02-21T00:32:12.330Z,1012.52
2018-02-21T00:32:52.765Z,1012.56
2018-02-21T00:33:33.187Z,1012.55
2018-02-21T00:34:13.596Z,1012.52
2018-02-21T00:36:38.169Z,1012.5
2018-02-21T00:37:25.511Z,1012.48
2018-02-21T00:38:12.281Z,1012.51
2018-02-21T00:38:53.816Z,1012.54
2018-02-21T00:39:34.232Z,1012.52
2018-02-21T00:41:32.901Z,1012.56
2018-02-21T00:44:08.831Z,1012.57
2018-02-21T00:44:58.792Z,1012.59
2018-02-21T00:45:45.729Z,1012.6
2018-02-21T00:46:36.559Z,1012.57
2018-02-21T00:47:16.272Z,1012.61
2018-02-21T00:49:14.138Z,1012.64
2018-02-21T00:49:58.852Z,1012.66
2018-02-21T00:50:52.128Z,1012.6
2018-02-21T00:51:33.373Z,1012.71
2018-02-21T00:52:13.784Z,1012.71
2018-02-21T00:52:54.204Z,1012.67
2018-02-21T00:53:34.603Z,1012.68
2018-02-21T00:54:15.071Z,1012.69
2018-02-21T00:54:55.422Z,1012.72
2018-02-21T00:55:35.800Z,1012.68
2018-02-21T00:56:16.206Z,1012.7
2018-02-21T00:56:56.625Z,1012.69
2018-02-21T00:57:37.071Z,1012.73
2018-02-21T00:58:17.451Z,1012.69
2018-02-21T00:58:57.871Z,1012.71
2018-02-21T00:59:38.256Z,1012.66
2018-02-21T01:00:18.645Z,1012.63
2018-02-21T01:00:59.070Z,1012.71
2018-02-21T01:01:39.468Z,1012.66
2018-02-21T01:02:19.865Z,1012.62
2018-02-21T01:03:00.276Z,1012.67
2018-02-21T01:03:40.733Z,1012.65
2018-02-21T01:04:21.147Z,1012.62
2018-02-21T01:05:01.533Z,1012.62
2018-02-21T01:05:41.917Z,1012.66
2018-02-21T01:06:22.321Z,1012.63
2018-02-21T01:07:02.743Z,1012.68
2018-02-21T01:07:43.213Z,1012.66
2018-02-21T01:08:23.613Z,1012.65
2018-02-21T01:09:04.078Z,1012.69
2018-02-21T01:09:44.418Z,1012.69
2018-02-21T01:10:24.834Z,1012.67
2018-02-21T01:11:05.255Z,1012.69
2018-02-21T01:11:45.651Z,1012.67
2018-02-21T01:12:26.064Z,1012.68
2018-02-21T01:13:06.475Z,1012.68
2018-02-21T01:13:46.887Z,1012.68
2018-02-21T01:14:27.344Z,1012.72
2018-02-21T01:15:07.745Z,1012.72
2018-02-21T01:15:48.154Z,1012.75
2018-02-21T01:16:28.529Z,1012.73
2018-02-21T01:17:08.927Z,1012.78
2018-02-21T01:19:27.968Z,1012.79
2018-02-21T01:20:17.039Z,1012.78
2018-02-21T01:21:07.953Z,1012.81
2018-02-21T01:21:57.029Z,1012.84
2018-02-21T01:22:47.849Z,1012.84
2018-02-21T01:24:53.928Z,1012.79
2018-02-21T01:25:40.337Z,1012.85
2018-02-21T01:26:29.399Z,1012.8
2018-02-21T01:27:13.316Z,1012.77
2018-02-21T01:27:53.708Z,1012.78
2018-02-21T01:28:34.125Z,1012.78
2018-02-21T01:29:14.543Z,1012.78
2018-02-21T01:31:50.756Z,1012.73
2018-02-21T01:32:42.794Z,1012.79
2018-02-21T01:34:55.092Z,1012.83
2018-02-21T01:36:30.434Z,1012.83
2018-02-21T01:37:25.871Z,1012.81
2018-02-21T01:39:16.587Z,1012.83
2018-02-21T01:40:07.572Z,1012.82
2018-02-21T01:42:11.925Z,1012.77
2018-02-21T01:44:17.132Z,1012.68
2018-02-21T01:45:07.792Z,1012.69
2018-02-21T01:45:57.710Z,1012.65
2018-02-21T01:47:59.763Z,1012.55
2018-02-21T01:51:42.952Z,1012.47
2018-02-21T01:54:03.876Z,1012.41
2018-02-21T01:54:53.751Z,1012.45
2018-02-21T02:02:13.231Z,1012.75
2018-02-21T02:03:05.491Z,1012.78
2018-02-21T02:04:02.138Z,1012.73
2018-02-21T02:05:54.886Z,1012.7
2018-02-21T02:06:47.081Z,1012.68
2018-02-21T02:08:52.247Z,1012.68
2018-02-21T02:09:43.146Z,1012.66
2018-02-21T02:10:33.892Z,1012.63
2018-02-21T02:12:42.571Z,1012.61
2018-02-21T02:25:06.472Z,1012.65
2018-02-21T02:25:58.798Z,1012.62
2018-02-21T02:26:50.984Z,1012.61
2018-02-21T02:27:42.823Z,1012.62
2018-02-21T02:28:36.897Z,1012.61
2018-02-21T02:29:29.874Z,1012.6
2018-02-21T02:30:23.282Z,1012.59
2018-02-21T02:31:15.917Z,1012.59
2018-02-21T02:32:08.485Z,1012.58
2018-02-21T02:33:01.062Z,1012.59
2018-02-21T02:33:53.163Z,1012.6
2018-02-21T02:34:45.576Z,1012.59
2018-02-21T02:35:38.442Z,1012.61
2018-02-21T02:36:30.399Z,1012.62
2018-02-21T02:37:23.855Z,1012.66
2018-02-21T02:38:17.743Z,1012.67
2018-02-21T02:39:09.973Z,1012.66
2018-02-21T02:40:02.591Z,1012.74
2018-02-21T02:40:54.873Z,1012.73
2018-02-21T02:41:46.900Z,1012.73
2018-02-21T02:42:40.455Z,1012.73
2018-02-21T02:43:32.466Z,1012.75
2018-02-21T02:44:25.666Z,1012.71
2018-02-21T02:45:17.577Z,1012.74
2018-02-21T02:46:09.965Z,1012.75
2018-02-21T02:46:55.028Z,1012.76
2018-02-21T02:47:35.410Z,1012.74
2018-02-21T02:48:15.807Z,1012.73
2018-02-21T02:48:56.143Z,1012.78
2018-02-21T02:49:36.557Z,1012.68
2018-02-21T02:50:16.857Z,1012.73
2018-02-21T02:50:57.293Z,1012.68
2018-02-21T02:51:37.666Z,1012.72
2018-02-21T02:52:18.083Z,1012.72
2018-02-21T02:52:58.524Z,1012.73
2018-02-21T02:53:39.031Z,1012.77
2018-02-21T02:54:19.375Z,1012.78
2018-02-21T02:54:59.774Z,1012.77
2018-02-21T02:55:40.152Z,1012.76
2018-02-21T02:56:20.551Z,1012.78
2018-02-21T02:57:00.950Z,1012.84
2018-02-21T02:57:41.392Z,1012.82
2018-02-21T02:58:21.769Z,1012.86
2018-02-21T02:59:02.153Z,1012.88
2018-02-21T02:59:42.559Z,1012.83
2018-02-21T03:00:22.926Z,1012.87
2018-02-21T03:01:03.338Z,1012.9
2018-02-21T03:01:43.751Z,1012.9
2018-02-21T03:02:24.085Z,1012.9
2018-02-21T03:03:04.509Z,1012.9
2018-02-21T03:03:44.887Z,1012.88
2018-02-21T03:04:25.289Z,1012.92
2018-02-21T03:05:05.674Z,1012.9
2018-02-21T03:05:46.064Z,1012.9
2018-02-21T03:06:26.471Z,1012.93
2018-02-21T03:07:06.832Z,1012.93
2018-02-21T03:07:47.244Z,1012.9
2018-02-21T03:08:27.634Z,1012.97
2018-02-21T03:09:08.078Z,1012.91
2018-02-21T03:09:48.496Z,1012.93
2018-02-21T03:10:28.923Z,1012.96
2018-02-21T03:11:09.262Z,1012.93
2018-02-21T03:11:49.752Z,1012.97
2018-02-21T03:12:30.099Z,1012.92
2018-02-21T03:13:10.515Z,1012.94
2018-02-21T03:13:50.936Z,1012.96
2018-02-21T03:14:31.311Z,1012.98
2018-02-21T03:15:11.774Z,1012.99
2018-02-21T03:15:52.117Z,1013.04
2018-02-21T03:16:32.507Z,1013.03
2018-02-21T03:17:12.912Z,1013.1
2018-02-21T03:17:53.338Z,1013.12
2018-02-21T03:18:33.741Z,1013.1
2018-02-21T03:19:14.096Z,1013.15
2018-02-21T03:19:54.476Z,1013.18
2018-02-21T03:20:35.068Z,1013.19
2018-02-21T03:21:15.466Z,1013.19
2018-02-21T03:21:55.876Z,1013.17
2018-02-21T03:22:36.372Z,1013.19
2018-02-21T03:23:16.689Z,1013.2
2018-02-21T03:23:57.174Z,1013.2
2018-02-21T03:24:37.496Z,1013.17
2018-02-21T03:25:17.913Z,1013.21
2018-02-21T03:25:58.401Z,1013.19
2018-02-21T03:26:38.764Z,1013.19
2018-02-21T03:27:19.198Z,1013.17
2018-02-21T03:27:59.589Z,1013.2
2018-02-21T03:28:39.986Z,1013.22
2018-02-21T03:29:20.414Z,1013.26
2018-02-21T03:30:00.791Z,1013.22
2018-02-21T03:30:41.180Z,1013.24
2018-02-21T03:31:21.608Z,1013.26
2018-02-21T03:32:02.025Z,1013.26
2018-02-21T03:32:42.401Z,1013.25
2018-02-21T03:33:22.756Z,1013.26
2018-02-21T03:34:03.169Z,1013.27
2018-02-21T03:34:43.653Z,1013.3
2018-02-21T03:35:23.985Z,1013.28
2018-02-21T03:36:04.437Z,1013.31
2018-02-21T03:36:44.809Z,1013.34
2018-02-21T03:37:25.194Z,1013.31
2018-02-21T03:38:05.600Z,1013.34
2018-02-21T03:38:46.002Z,1013.31
2018-02-21T03:39:26.351Z,1013.28
2018-02-21T03:40:06.807Z,1013.29
2018-02-21T03:40:47.191Z,1013.26
2018-02-21T03:41:27.649Z,1013.29
2018-02-21T03:42:08.082Z,1013.29
2018-02-21T03:42:48.489Z,1013.28
2018-02-21T03:43:28.885Z,1013.28
2018-02-21T03:44:09.283Z,1013.25
2018-02-21T03:44:49.665Z,1013.29
2018-02-21T03:45:30.079Z,1013.27
2018-02-21T03:46:10.538Z,1013.24
2018-02-21T03:46:50.915Z,1013.28
2018-02-21T03:47:31.326Z,1013.25
2018-02-21T03:48:11.727Z,1013.27
2018-02-21T03:48:52.108Z,1013.28
2018-02-21T03:49:32.565Z,1013.29
2018-02-21T03:50:12.918Z,1013.26
2018-02-21T03:50:53.374Z,1013.32
2018-02-21T03:51:33.776Z,1013.31
2018-02-21T03:52:14.176Z,1013.36
2018-02-21T03:52:54.548Z,1013.37
2018-02-21T03:53:34.974Z,1013.42
2018-02-21T03:54:15.398Z,1013.41
2018-02-21T03:54:55.851Z,1013.41
2018-02-21T03:55:36.219Z,1013.44
2018-02-21T03:56:16.684Z,1013.44
2018-02-21T03:56:56.993Z,1013.46
2018-02-21T03:57:37.432Z,1013.45
2018-02-21T03:58:17.803Z,1013.51
2018-02-21T03:58:58.328Z,1013.5
2018-02-21T03:59:38.694Z,1013.54
2018-02-21T04:00:19.073Z,1013.56
2018-02-21T04:00:59.528Z,1013.54
2018-02-21T04:01:39.944Z,1013.55
2018-02-21T04:02:20.318Z,1013.53
2018-02-21T04:03:00.772Z,1013.58
2018-02-21T04:03:41.105Z,1013.56
2018-02-21T04:04:21.542Z,1013.56
2018-02-21T04:05:01.910Z,1013.58
2018-02-21T04:05:42.287Z,1013.59
2018-02-21T04:06:22.671Z,1013.6
2018-02-21T04:44:13.616Z,1013.71
2018-02-21T04:44:54.020Z,1013.7
2018-02-21T04:45:34.749Z,1013.7
2018-02-21T04:46:14.928Z,1013.67
2018-02-21T04:46:55.346Z,1013.67
2018-02-21T04:47:36.017Z,1013.66
2018-02-21T04:48:16.179Z,1013.64
2018-02-21T04:48:56.561Z,1013.71
2018-02-21T04:49:37.066Z,1013.69
2018-02-21T04:50:17.386Z,1013.74
2018-02-21T04:50:57.898Z,1013.74
2018-02-21T04:51:38.350Z,1013.72
2018-02-21T04:52:18.692Z,1013.8
2018-02-21T04:52:59.072Z,1013.81
2018-02-21T04:53:39.515Z,1013.83
2018-02-21T04:54:19.883Z,1013.83
2018-02-21T04:55:00.293Z,1013.84
2018-02-21T04:55:40.738Z,1013.83
2018-02-21T04:56:21.102Z,1013.85
2018-02-21T04:57:01.513Z,1013.84
2018-02-21T04:57:41.924Z,1013.82
2018-02-21T04:58:22.360Z,1013.84
2018-02-21T04:59:02.788Z,1013.75
2018-02-21T04:59:44.461Z,1013.74
2018-02-21T05:00:24.692Z,1013.77
2018-02-21T05:01:05.524Z,1013.74
2018-02-21T05:01:45.652Z,1013.74
2018-02-21T05:02:26.049Z,1013.74
2018-02-21T05:03:06.473Z,1013.8
2018-02-21T05:03:46.953Z,1013.83
2018-02-21T05:04:27.435Z,1013.8
2018-02-21T05:05:07.800Z,1013.81
2018-02-21T05:05:48.236Z,1013.79
2018-02-21T05:06:28.598Z,1013.83
2018-02-21T05:07:08.989Z,1013.81
2018-02-21T05:07:49.429Z,1013.8
2018-02-21T05:08:29.932Z,1013.81
2018-02-21T05:09:10.195Z,1013.84
2018-02-21T05:09:50.697Z,1013.79
2018-02-21T05:10:31.421Z,1013.77
2018-02-21T05:11:11.825Z,1013.82
2018-02-21T05:11:52.002Z,1013.73
2018-02-21T05:12:32.396Z,1013.79
2018-02-21T05:13:12.812Z,1013.76
2018-02-21T05:13:53.164Z,1013.79
2018-02-21T05:14:33.787Z,1013.8
2018-02-21T05:15:14.092Z,1013.78
2018-02-21T05:15:54.493Z,1013.84
2018-02-21T05:16:34.971Z,1013.81
2018-02-21T05:19:20.600Z,1013.79
2018-02-21T05:24:28.788Z,1013.72
2018-02-21T05:26:22.276Z,1013.68
2018-02-21T05:27:07.064Z,1013.63
2018-02-21T05:27:49.085Z,1013.63
2018-02-21T05:28:29.531Z,1013.61
2018-02-21T05:29:09.891Z,1013.64
2018-02-21T05:29:50.310Z,1013.58
2018-02-21T05:30:30.685Z,1013.61
2018-02-21T05:31:11.161Z,1013.64
2018-02-21T05:31:51.473Z,1013.63
2018-02-21T05:32:31.868Z,1013.63
2018-02-21T05:33:12.314Z,1013.56
2018-02-21T05:33:52.755Z,1013.6
2018-02-21T05:34:33.131Z,1013.56
2018-02-21T05:36:51.262Z,1013.64
2018-02-21T05:37:40.231Z,1013.57
2018-02-21T05:39:14.360Z,1013.57
2018-02-21T05:39:54.755Z,1013.58
2018-02-21T05:40:35.169Z,1013.59
2018-02-21T05:41:15.672Z,1013.59
2018-02-21T05:41:56.022Z,1013.64
2018-02-21T05:42:36.826Z,1013.6
2018-02-21T05:43:17.419Z,1013.63
2018-02-21T05:43:57.852Z,1013.66
2018-02-21T05:44:38.569Z,1013.64
2018-02-21T05:45:19.234Z,1013.65
2018-02-21T05:45:59.548Z,1013.65
2018-02-21T05:46:40.462Z,1013.64
2018-02-21T05:47:20.918Z,1013.63
2018-02-21T05:48:01.349Z,1013.63
2018-02-21T05:48:41.673Z,1013.61
2018-02-21T05:49:22.124Z,1013.56
2018-02-21T05:50:02.549Z,1013.61
2018-02-21T05:50:42.960Z,1013.57
2018-02-21T05:54:46.346Z,1013.61
2018-02-21T05:57:15.232Z,1013.65
2018-02-21T06:00:49.942Z,1013.74
2018-02-21T06:01:44.536Z,1013.72
2018-02-21T06:02:37.921Z,1013.71
2018-02-21T06:03:30.487Z,1013.75
2018-02-21T06:04:23.799Z,1013.76
2018-02-21T06:05:17.417Z,1013.74
2018-02-21T06:06:09.559Z,1013.73
2018-02-21T06:07:01.558Z,1013.74
2018-02-21T06:07:53.687Z,1013.69
2018-02-21T06:08:46.626Z,1013.8
2018-02-21T06:09:40.062Z,1013.75
2018-02-21T06:10:32.643Z,1013.8
2018-02-21T06:11:24.976Z,1013.79
2018-02-21T06:12:18.042Z,1013.76
2018-02-21T06:13:09.815Z,1013.76
2018-02-21T06:14:02.500Z,1013.82
2018-02-21T06:14:54.926Z,1013.8
2018-02-21T06:15:37.997Z,1013.87
2018-02-21T06:16:18.380Z,1013.84
2018-02-21T06:16:58.771Z,1013.86
2018-02-21T06:17:39.283Z,1013.88
2018-02-21T06:18:19.683Z,1013.88
2018-02-21T06:19:00.138Z,1013.91
2018-02-21T06:19:40.460Z,1013.88
2018-02-21T06:20:20.907Z,1013.9
2018-02-21T06:21:01.495Z,1013.89
2018-02-21T06:21:41.946Z,1013.89
2018-02-21T06:22:22.627Z,1013.9
2018-02-21T06:23:02.800Z,1013.89
2018-02-21T06:23:43.200Z,1013.88
2018-02-21T06:24:23.680Z,1013.89
2018-02-21T06:25:04.078Z,1013.84
2018-02-21T06:25:44.369Z,1013.89
2018-02-21T06:26:24.893Z,1013.89
2018-02-21T06:27:05.438Z,1013.89
2018-02-21T06:27:45.872Z,1013.9
2018-02-21T06:28:26.571Z,1013.92
2018-02-21T06:29:06.961Z,1013.9
2018-02-21T06:29:47.426Z,1013.91
2018-02-21T06:30:27.805Z,1013.91
2018-02-21T06:31:08.237Z,1013.88
2018-02-21T06:31:48.652Z,1013.91
2018-02-21T06:32:29.053Z,1013.93
2018-02-21T06:33:09.411Z,1013.88
2018-02-21T06:33:49.800Z,1013.91
2018-02-21T06:34:30.204Z,1013.94
2018-02-21T06:35:10.630Z,1013.96
2018-02-21T06:35:51.026Z,1013.97
2018-02-21T06:36:31.476Z,1013.99
2018-02-21T06:37:12.059Z,1014.02
2018-02-21T06:37:52.389Z,1014.03
2018-02-21T06:38:33.201Z,1014.05
2018-02-21T06:39:15.412Z,1014.03
2018-02-21T06:39:56.113Z,1014.04
2018-02-21T06:40:36.611Z,1014.07
2018-02-21T06:41:16.916Z,1014.12
2018-02-21T06:41:57.376Z,1014.11
2018-02-21T06:42:37.878Z,1014.15
2018-02-21T06:43:18.219Z,1014.2
2018-02-21T06:43:58.873Z,1014.18
2018-02-21T06:44:39.388Z,1014.16
2018-02-21T06:45:20.019Z,1014.2
2018-02-21T06:46:00.391Z,1014.15
2018-02-21T06:46:40.801Z,1014.19
2018-02-21T06:47:21.271Z,1014.19
2018-02-21T06:48:01.674Z,1014.22
2018-02-21T06:48:42.038Z,1014.23
2018-02-21T06:49:22.471Z,1014.25
2018-02-21T06:50:03.018Z,1014.27
2018-02-21T06:50:43.357Z,1014.25
2018-02-21T06:51:23.705Z,1014.24
2018-02-21T06:52:04.225Z,1014.28
2018-02-21T06:52:44.636Z,1014.3
2018-02-21T06:53:25.057Z,1014.26
2018-02-21T06:54:05.451Z,1014.28
2018-02-21T06:54:47.400Z,1014.25
2018-02-21T06:55:27.820Z,1014.27
2018-02-21T06:56:08.452Z,1014.29
2018-02-21T06:58:38.869Z,1014.23
2018-02-21T07:02:24.768Z,1014.34
2018-02-21T07:03:17.639Z,1014.33
2018-02-21T07:04:11.128Z,1014.34
2018-02-21T07:05:03.966Z,1014.32
2018-02-21T07:05:59.497Z,1014.27
2018-02-21T07:06:53.513Z,1014.28
2018-02-21T07:07:48.819Z,1014.28
2018-02-21T07:08:44.015Z,1014.24
2018-02-21T07:09:36.930Z,1014.32
2018-02-21T07:10:30.150Z,1014.33
2018-02-21T07:11:23.053Z,1014.35
2018-02-21T07:12:17.469Z,1014.34
2018-02-21T07:13:11.125Z,1014.37
2018-02-21T07:14:05.496Z,1014.38
2018-02-21T07:14:58.503Z,1014.43
2018-02-21T07:15:53.672Z,1014.48
2018-02-21T07:16:50.384Z,1014.45
2018-02-21T07:17:44.604Z,1014.47
2018-02-21T07:18:40.992Z,1014.44
2018-02-21T07:19:34.313Z,1014.46
2018-02-21T07:22:22.122Z,1014.47
2018-02-21T07:26:43.508Z,1014.56
2018-02-21T07:28:39.881Z,1014.53
2018-02-21T07:37:56.248Z,1014.62
2018-02-21T07:42:04.787Z,1014.62
2018-02-21T07:43:58.134Z,1014.6
2018-02-21T07:44:47.531Z,1014.61
2018-02-21T07:45:35.604Z,1014.63
2018-02-21T07:47:38.077Z,1014.71
2018-02-21T07:48:28.456Z,1014.75
2018-02-21T07:49:15.215Z,1014.73
2018-02-21T07:50:04.055Z,1014.69
2018-02-21T07:50:54.097Z,1014.63
2018-02-21T07:51:43.030Z,1014.66
2018-02-21T07:52:32.555Z,1014.69
2018-02-21T07:53:11.535Z,1014.64
2018-02-21T07:53:52.004Z,1014.63
2018-02-21T07:54:32.429Z,1014.62
2018-02-21T07:55:12.818Z,1014.61
2018-02-21T07:55:53.253Z,1014.65
2018-02-21T07:56:33.633Z,1014.63
2018-02-21T07:57:14.061Z,1014.63
2018-02-21T07:57:54.461Z,1014.69
2018-02-21T07:58:34.886Z,1014.63
2018-02-21T08:01:08.656Z,1014.68
2018-02-21T08:03:09.755Z,1014.66
2018-02-21T08:03:56.953Z,1014.67
2018-02-21T08:04:46.333Z,1014.66
2018-02-21T08:06:54.328Z,1014.62
2018-02-21T08:07:46.420Z,1014.57
2018-02-21T08:11:23.526Z,1014.63
2018-02-21T08:12:15.381Z,1014.59
2018-02-21T08:13:04.415Z,1014.59
2018-02-21T08:13:54.980Z,1014.59
2018-02-21T08:14:45.242Z,1014.67
2018-02-21T08:15:49.749Z,1014.7
2018-02-21T08:16:41.247Z,1014.67
2018-02-21T08:19:08.643Z,1014.68
2018-02-21T08:19:58.593Z,1014.7
2018-02-21T08:20:49.009Z,1014.72
2018-02-21T08:21:40.479Z,1014.75
2018-02-21T08:22:30.463Z,1014.76
2018-02-21T08:23:19.337Z,1014.73
2018-02-21T08:24:09.625Z,1014.8
2018-02-21T08:25:03.085Z,1014.82
2018-02-21T08:34:29.601Z,1014.73
2018-02-21T08:36:25.154Z,1014.77
2018-02-21T08:42:56.419Z,1014.8
2018-02-21T08:45:38.992Z,1014.84
2018-02-21T08:46:34.853Z,1014.86
2018-02-21T08:47:28.840Z,1014.85
2018-02-21T08:48:18.076Z,1014.87
2018-02-21T08:49:01.125Z,1014.89
2018-02-21T08:49:41.528Z,1014.89
2018-02-21T08:50:21.940Z,1014.94
2018-02-21T08:51:02.346Z,1014.89
2018-02-21T08:51:42.891Z,1014.9
2018-02-21T08:52:23.409Z,1014.88
2018-02-21T08:53:03.809Z,1014.94
2018-02-21T08:53:44.179Z,1014.88
2018-02-21T08:54:24.636Z,1014.86
2018-02-21T08:55:05.322Z,1014.84
2018-02-21T08:55:46.252Z,1014.88
2018-02-21T08:56:26.681Z,1014.9
2018-02-21T08:57:07.043Z,1014.85
2018-02-21T08:57:47.471Z,1014.9
2018-02-21T08:58:28.896Z,1014.88
2018-02-21T08:59:08.397Z,1014.88
2018-02-21T08:59:48.868Z,1014.88
2018-02-21T09:00:29.303Z,1014.85
2018-02-21T09:01:09.666Z,1014.83
2018-02-21T09:01:50.123Z,1014.8
2018-02-21T09:02:30.513Z,1014.8
2018-02-21T09:03:11.008Z,1014.83
2018-02-21T09:03:51.400Z,1014.84
2018-02-21T09:04:31.822Z,1014.82
2018-02-21T09:05:12.233Z,1014.84
2018-02-21T09:05:52.576Z,1014.86
2018-02-21T09:06:33.053Z,1014.82
2018-02-21T09:07:13.520Z,1014.82
2018-02-21T09:07:53.855Z,1014.83
2018-02-21T09:08:34.220Z,1014.84
2018-02-21T09:09:14.645Z,1014.82
2018-02-21T09:09:55.062Z,1014.79
2018-02-21T09:10:35.473Z,1014.8
2018-02-21T09:11:15.984Z,1014.8
2018-02-21T09:11:56.379Z,1014.82
2018-02-21T09:12:36.826Z,1014.81
2018-02-21T09:13:17.259Z,1014.82
2018-02-21T09:13:57.706Z,1014.83
2018-02-21T09:14:38.200Z,1014.82
2018-02-21T09:15:19.165Z,1014.8
2018-02-21T09:15:59.591Z,1014.78
2018-02-21T09:16:40.036Z,1014.75
2018-02-21T09:17:20.350Z,1014.78
2018-02-21T09:18:00.804Z,1014.78
2018-02-21T09:18:41.252Z,1014.74
2018-02-21T09:19:21.922Z,1014.74
2018-02-21T09:20:03.034Z,1014.73
2018-02-21T09:20:43.636Z,1014.75
2018-02-21T09:21:24.031Z,1014.75
2018-02-21T09:22:08.098Z,1014.74
2018-02-21T09:22:59.657Z,1014.75
2018-02-21T09:23:45.278Z,1014.75
2018-02-21T09:24:25.906Z,1014.72
2018-02-21T09:25:06.248Z,1014.7
2018-02-21T09:27:50.337Z,1014.7
2018-02-21T09:28:28.636Z,1014.74
2018-02-21T09:29:09.044Z,1014.72
2018-02-21T09:29:49.499Z,1014.7
2018-02-21T09:30:29.844Z,1014.72
2018-02-21T09:31:10.267Z,1014.65
2018-02-21T09:31:50.690Z,1014.73
2018-02-21T09:32:31.097Z,1014.68
2018-02-21T09:33:11.580Z,1014.7
2018-02-21T09:33:51.971Z,1014.67
2018-02-21T09:34:32.429Z,1014.71
2018-02-21T09:35:12.796Z,1014.65
2018-02-21T09:35:53.259Z,1014.69
2018-02-21T09:36:33.632Z,1014.68
2018-02-21T09:37:14.055Z,1014.69
2018-02-21T09:37:54.470Z,1014.67
2018-02-21T09:38:34.907Z,1014.64
2018-02-21T09:39:15.382Z,1014.69
2018-02-21T09:39:56.715Z,1014.66
2018-02-21T09:40:37.243Z,1014.67
2018-02-21T09:41:19.363Z,1014.69
2018-02-21T09:42:00.102Z,1014.71
2018-02-21T09:42:40.445Z,1014.67
2018-02-21T09:43:20.992Z,1014.69
2018-02-21T09:44:01.807Z,1014.69
2018-02-21T09:44:42.442Z,1014.72
2018-02-21T09:45:22.817Z,1014.72
2018-02-21T09:46:03.704Z,1014.68
2018-02-21T09:46:44.315Z,1014.68
2018-02-21T09:47:24.846Z,1014.67
2018-02-21T09:48:05.256Z,1014.66
2018-02-21T09:48:45.646Z,1014.65
2018-02-21T09:49:26.135Z,1014.62
2018-02-21T09:50:06.681Z,1014.64
2018-02-21T09:50:47.100Z,1014.66
2018-02-21T09:51:27.963Z,1014.62
2018-02-21T09:52:08.670Z,1014.64
2018-02-21T09:52:51.106Z,1014.62
2018-02-21T09:53:31.561Z,1014.64
2018-02-21T09:54:12.218Z,1014.65
2018-02-21T09:54:52.528Z,1014.66
2018-02-21T09:55:32.850Z,1014.65
2018-02-21T09:56:13.331Z,1014.67
2018-02-21T09:56:53.692Z,1014.69
2018-02-21T09:57:34.260Z,1014.67
2018-02-21T09:58:14.884Z,1014.71
2018-02-21T09:58:55.260Z,1014.71
2018-02-21T09:59:35.680Z,1014.75
2018-02-21T10:00:16.052Z,1014.67
2018-02-21T10:02:38.673Z,1014.69
2018-02-21T10:48:03.917Z,1014.73
2018-02-21T10:48:49.646Z,1014.69
2018-02-21T10:49:29.888Z,1014.73
2018-02-21T10:50:10.336Z,1014.73
2018-02-21T10:50:50.765Z,1014.72
2018-02-21T10:51:31.259Z,1014.75
2018-02-21T10:52:11.651Z,1014.72
2018-02-21T10:52:52.083Z,1014.7
2018-02-21T10:53:32.520Z,1014.66
2018-02-21T10:54:12.932Z,1014.66
2018-02-21T10:54:53.325Z,1014.62
2018-02-21T10:55:33.824Z,1014.62
2018-02-21T10:58:03.160Z,1014.63
2018-02-21T10:58:44.298Z,1014.58
2018-02-21T10:59:24.676Z,1014.59
2018-02-21T11:02:15.188Z,1014.6
2018-02-21T11:02:55.892Z,1014.6
2018-02-21T11:09:47.336Z,1014.57
2018-02-21T11:10:27.717Z,1014.52
2018-02-21T11:11:08.262Z,1014.5
2018-02-21T11:11:48.579Z,1014.53
2018-02-21T11:12:28.984Z,1014.53
2018-02-21T11:13:09.385Z,1014.55
2018-02-21T11:13:49.821Z,1014.52
2018-02-21T11:14:30.286Z,1014.52
2018-02-21T11:15:10.754Z,1014.51
2018-02-21T11:15:51.167Z,1014.54
2018-02-21T11:16:31.584Z,1014.55
2018-02-21T11:17:12.035Z,1014.49
2018-02-21T11:17:52.418Z,1014.55
2018-02-21T11:18:32.849Z,1014.53
2018-02-21T11:19:13.304Z,1014.53
2018-02-21T11:19:53.742Z,1014.54
2018-02-21T11:20:34.285Z,1014.55
2018-02-21T11:21:14.671Z,1014.52
2018-02-21T11:21:55.114Z,1014.54
2018-02-21T11:22:35.551Z,1014.56
2018-02-21T11:23:15.943Z,1014.56
2018-02-21T11:23:56.335Z,1014.57
2018-02-21T11:24:36.726Z,1014.58
2018-02-21T11:25:17.113Z,1014.61
2018-02-21T11:25:57.691Z,1014.59
2018-02-21T11:27:06.489Z,1014.59
2018-02-21T11:27:46.820Z,1014.61
2018-02-21T11:28:27.292Z,1014.56
2018-02-21T11:29:07.804Z,1014.52
2018-02-21T11:29:48.825Z,1014.51
2018-02-21T11:30:29.128Z,1014.52
2018-02-21T11:31:09.542Z,1014.5
2018-02-21T11:31:50.005Z,1014.47
2018-02-21T11:32:30.462Z,1014.39
2018-02-21T11:33:10.800Z,1014.51
2018-02-21T11:33:51.276Z,1014.55
2018-02-21T11:34:31.669Z,1014.53
2018-02-21T11:35:11.998Z,1014.57
2018-02-21T11:35:52.545Z,1014.52
2018-02-21T11:36:33.843Z,1014.53
2018-02-21T11:37:15.764Z,1014.54
2018-02-21T11:38:05.640Z,1014.56
2018-02-21T11:38:46.225Z,1014.55
2018-02-21T11:41:01.364Z,1014.58
2018-02-21T11:41:41.743Z,1014.54
2018-02-21T11:42:22.293Z,1014.53
2018-02-21T11:43:02.765Z,1014.55
2018-02-21T11:43:43.110Z,1014.56
2018-02-21T11:44:23.560Z,1014.58
2018-02-21T11:45:04.078Z,1014.59
2018-02-21T11:45:45.403Z,1014.54
2018-02-21T11:46:25.591Z,1014.57
2018-02-21T11:47:06.247Z,1014.58
2018-02-21T11:47:46.966Z,1014.57
2018-02-21T11:48:27.420Z,1014.54
2018-02-21T11:49:07.850Z,1014.57
2018-02-21T11:49:48.372Z,1014.55
2018-02-21T11:50:28.897Z,1014.54
2018-02-21T11:51:09.371Z,1014.51
2018-02-21T11:52:12.817Z,1014.51
2018-02-21T11:54:58.615Z,1014.49
2018-02-21T11:57:44.077Z,1014.43
2018-02-21T11:58:23.693Z,1014.44
2018-02-21T11:59:04.209Z,1014.47
2018-02-21T11:59:44.672Z,1014.45
2018-02-21T12:00:25.182Z,1014.42
2018-02-21T12:01:05.446Z,1014.41
2018-02-21T12:01:45.946Z,1014.45
2018-02-21T12:02:26.533Z,1014.44
2018-02-21T12:03:06.941Z,1014.42
2018-02-21T12:03:47.696Z,1014.45
2018-02-21T12:04:29.169Z,1014.45
2018-02-21T12:05:09.757Z,1014.45
2018-02-21T12:05:50.509Z,1014.42
2018-02-21T12:06:30.780Z,1014.41
2018-02-21T12:07:11.294Z,1014.41
2018-02-21T12:07:51.750Z,1014.39
2018-02-21T12:08:32.181Z,1014.39
2018-02-21T12:09:13.018Z,1014.34
2018-02-21T12:09:53.541Z,1014.35
2018-02-21T12:10:33.997Z,1014.33
2018-02-21T12:11:14.497Z,1014.32
2018-02-21T12:11:54.883Z,1014.32
2018-02-21T12:12:35.321Z,1014.28
2018-02-21T12:13:15.785Z,1014.3
2018-02-21T12:13:56.167Z,1014.3
2018-02-21T12:14:36.559Z,1014.31
2018-02-21T12:15:17.049Z,1014.31
2018-02-21T12:15:57.539Z,1014.32
2018-02-21T12:16:38.612Z,1014.3
2018-02-21T12:17:18.446Z,1014.28
2018-02-21T12:17:59.127Z,1014.26
2018-02-21T12:18:39.598Z,1014.26
2018-02-21T12:19:20.192Z,1014.26